createdAt,value
2022-12-18T04:09:07.553Z,771.13
2022-12-18T04:12:21.958Z,906.77
2022-12-18T04:15:36.692Z,854.77
2022-12-18T04:18:48.003Z,863.77
2022-12-18T04:21:58.307Z,864.53
2022-12-18T04:25:13.054Z,861.30
2022-12-18T04:28:32.160Z,922.43
2022-12-18T04:31:41.866Z,923.97
2022-12-18T04:34:52.625Z,907.53
2022-12-18T04:38:02.480Z,961.10
2022-12-18T04:41:13.492Z,924.87
2022-12-18T04:44:24.615Z,914.93
2022-12-18T04:47:34.280Z,895.20
2022-12-18T04:50:43.993Z,848.73
2022-12-18T04:53:53.711Z,847.43
2022-12-18T04:57:04.849Z,837.57
2022-12-18T05:00:15.251Z,842.83
2022-12-18T05:03:25.089Z,841.83
2022-12-18T05:06:34.867Z,871.37
2022-12-18T05:09:47.191Z,867.87
2022-12-18T05:13:01.361Z,887.97
2022-12-18T05:16:11.526Z,847.47
2022-12-18T05:19:21.353Z,844.37
2022-12-18T05:22:31.029Z,907.20
2022-12-18T05:25:40.700Z,928.93
2022-12-18T05:28:52.617Z,831.93
2022-12-18T05:32:02.304Z,878.27
2022-12-18T05:35:12.947Z,933.33
2022-12-18T05:38:24.261Z,926.63
2022-12-18T05:41:33.972Z,904.50
2022-12-18T05:44:45.360Z,919.47
2022-12-18T05:47:55.009Z,916.90
2022-12-18T05:51:08.226Z,910.67
2022-12-18T05:54:17.972Z,921.23
2022-12-18T05:57:27.662Z,881.67
2022-12-18T06:00:40.930Z,898.23
2022-12-18T06:38:11.567Z,802.57
2022-12-18T06:41:23.065Z,741.53
2022-12-18T06:44:32.750Z,697.97
2022-12-18T06:47:42.447Z,712.80
2022-12-18T06:50:52.127Z,707.07
2022-12-18T06:54:03.123Z,800.57
2022-12-18T06:57:12.839Z,709.40
2022-12-18T07:00:22.581Z,698.57
2022-12-18T07:03:33.060Z,689.07
2022-12-18T07:06:42.773Z,613.57
2022-12-18T07:09:53.832Z,723.93
2022-12-18T07:13:03.787Z,733.70
2022-12-18T07:16:18.638Z,794.20
2022-12-18T07:19:32.904Z,741.63
2022-12-18T07:22:42.640Z,676.63
2022-12-18T07:25:53.557Z,723.30
2022-12-18T07:29:03.334Z,641.40
2022-12-18T07:32:13.019Z,496.27
2022-12-18T07:35:25.362Z,604.30
2022-12-18T07:38:36.702Z,462.30
2022-12-18T07:42:07.757Z,536.47
2022-12-18T07:45:17.598Z,531.43
2022-12-18T07:48:27.415Z,482.93
2022-12-18T07:51:37.027Z,521.10
2022-12-18T07:54:46.842Z,515.10
2022-12-18T07:58:01.011Z,452.80
2022-12-18T08:01:12.676Z,421.97
2022-12-18T08:04:22.348Z,529.23
2022-12-18T08:07:32.062Z,754.00
2022-12-18T08:10:41.952Z,698.33
2022-12-18T08:13:53.247Z,765.57
2022-12-18T08:17:02.988Z,800.23
2022-12-18T08:20:14.858Z,759.13
2022-12-18T08:23:27.584Z,643.13
2022-12-18T08:26:38.646Z,623.13
2022-12-18T08:29:49.571Z,675.37
2022-12-18T08:32:59.267Z,635.97
2022-12-18T08:36:10.934Z,662.30
2022-12-18T08:39:20.595Z,677.43
2022-12-18T08:42:44.178Z,642.87
2022-12-18T08:45:55.817Z,573.07
2022-12-18T08:49:06.096Z,633.20
2022-12-18T08:52:16.776Z,722.97
2022-12-18T08:55:26.546Z,719.87
2022-12-18T08:58:36.229Z,667.43
2022-12-18T09:01:48.139Z,729.10
2022-12-18T09:04:58.002Z,788.70
2022-12-18T09:08:07.786Z,796.03
2022-12-18T09:11:21.939Z,800.30
2022-12-18T09:14:31.560Z,773.80
2022-12-18T09:17:42.568Z,779.53
2022-12-18T09:20:53.607Z,776.13
2022-12-18T09:24:03.262Z,780.50
2022-12-18T09:27:15.863Z,799.03
2022-12-18T09:30:25.499Z,796.80
2022-12-18T09:33:37.470Z,786.13
2022-12-18T09:36:47.795Z,799.93
2022-12-18T09:39:57.918Z,849.80
2022-12-18T09:43:12.713Z,834.20
2022-12-18T09:46:28.689Z,844.47
2022-12-18T09:49:44.523Z,794.57
2022-12-18T09:52:58.834Z,814.97
2022-12-18T09:56:17.989Z,849.27
2022-12-18T09:59:36.894Z,838.50
2022-12-18T10:02:47.919Z,816.10
2022-12-18T10:06:08.027Z,835.53
2022-12-18T10:09:29.163Z,809.33
2022-12-18T10:12:47.952Z,831.23
2022-12-18T10:16:10.857Z,869.20
2022-12-18T10:19:36.956Z,840.97
2022-12-18T10:22:57.364Z,833.43
2022-12-18T10:26:08.446Z,835.40
2022-12-18T10:29:18.911Z,879.27
2022-12-18T10:32:31.026Z,873.60
2022-12-18T10:35:44.108Z,820.10
2022-12-18T10:38:55.069Z,849.53
2022-12-18T10:42:13.906Z,808.87
2022-12-18T10:45:23.724Z,845.60
2022-12-18T10:48:35.472Z,836.93
2022-12-18T10:51:45.246Z,807.83
2022-12-18T10:54:59.424Z,828.97
2022-12-18T10:58:26.593Z,827.87
2022-12-18T11:01:50.512Z,762.83
2022-12-18T11:05:00.294Z,815.27
2022-12-18T11:08:23.608Z,763.83
2022-12-18T11:11:35.218Z,826.10
2022-12-18T11:14:48.862Z,821.40
2022-12-18T11:17:59.217Z,795.33
2022-12-18T11:21:11.053Z,774.63
2022-12-18T11:24:27.134Z,775.50
2022-12-18T11:27:39.464Z,766.97
2022-12-18T11:30:49.141Z,825.67
2022-12-18T11:37:34.828Z,767.30
2022-12-18T11:40:49.693Z,745.77
2022-12-18T11:44:04.003Z,833.83
2022-12-18T11:47:23.803Z,830.13
2022-12-18T11:50:48.571Z,821.00
2022-12-18T11:53:58.324Z,822.80
2022-12-18T11:57:17.853Z,815.67
2022-12-18T12:00:29.058Z,785.67
2022-12-18T12:03:58.951Z,776.20
2022-12-18T12:07:20.206Z,834.70
2022-12-18T12:10:43.310Z,866.90
2022-12-18T12:14:07.012Z,848.97
2022-12-18T12:17:28.179Z,817.17
2022-12-18T12:20:49.428Z,780.13
2022-12-18T12:24:07.328Z,811.00
2022-12-18T12:27:25.976Z,834.87
2022-12-18T12:30:46.963Z,782.60
2022-12-18T12:34:09.774Z,739.60
2022-12-18T12:37:30.800Z,780.87
2022-12-18T12:40:58.789Z,771.73
2022-12-18T12:44:18.531Z,732.90
2022-12-18T12:47:34.100Z,748.60
2022-12-18T12:50:46.132Z,767.60
2022-12-18T12:53:58.362Z,762.50
2022-12-18T12:57:14.509Z,763.20
2022-12-18T13:00:27.213Z,747.53
2022-12-18T13:03:47.178Z,769.87
2022-12-18T13:07:05.974Z,749.67
2022-12-18T13:10:27.924Z,800.27
2022-12-18T13:13:50.571Z,743.57
2022-12-18T13:17:18.129Z,785.83
2022-12-18T13:20:35.679Z,732.93
2022-12-18T13:23:47.441Z,767.83
2022-12-18T13:26:57.150Z,840.90
2022-12-18T13:30:44.797Z,830.00
2022-12-18T13:34:26.306Z,781.07
2022-12-18T13:37:46.016Z,814.97
2022-12-18T13:40:59.958Z,777.73
2022-12-18T13:44:14.670Z,755.47
2022-12-18T13:47:30.077Z,745.07
2022-12-18T13:50:40.987Z,693.53
2022-12-18T13:53:53.364Z,725.60
2022-12-18T13:57:05.840Z,762.77
2022-12-18T14:00:28.029Z,752.27
2022-12-18T14:03:37.877Z,770.27
2022-12-18T14:06:48.426Z,815.47
2022-12-18T14:10:12.056Z,810.30
2022-12-18T14:13:34.918Z,774.37
2022-12-18T14:16:44.959Z,768.93
2022-12-18T14:19:55.619Z,745.67
2022-12-18T14:23:05.343Z,762.17
2022-12-18T14:26:24.375Z,740.83
2022-12-18T14:29:37.513Z,690.60
2022-12-18T14:33:01.911Z,707.10
2022-12-18T14:36:18.528Z,706.60
2022-12-18T14:39:28.319Z,821.33
2022-12-18T14:42:38.715Z,740.43
2022-12-18T14:45:50.813Z,764.53
2022-12-18T14:49:02.246Z,761.10
2022-12-18T14:52:23.075Z,774.60
2022-12-18T14:55:33.295Z,766.97
2022-12-18T14:58:48.306Z,833.10
2022-12-18T15:02:06.276Z,794.93
2022-12-18T15:05:21.627Z,778.93
2022-12-18T15:08:37.790Z,801.37
2022-12-18T15:11:49.896Z,801.43
2022-12-18T15:15:00.970Z,820.87
2022-12-18T15:18:18.126Z,780.77
2022-12-18T15:21:32.784Z,814.43
2022-12-18T15:24:43.683Z,778.60
2022-12-18T15:27:54.882Z,850.70
2022-12-18T15:31:09.335Z,852.13
2022-12-18T15:34:25.212Z,873.10
2022-12-18T15:37:36.076Z,929.93
2022-12-18T15:40:47.616Z,891.73
2022-12-18T15:43:59.194Z,861.30
2022-12-18T15:47:15.642Z,892.43
2022-12-18T15:50:28.454Z,879.70
2022-12-18T15:53:42.134Z,855.40
2022-12-18T15:57:06.687Z,868.30
2022-12-18T16:00:18.577Z,867.33
2022-12-18T16:03:29.377Z,862.23
2022-12-18T16:07:12.782Z,876.57
2022-12-18T16:10:14.325Z,887.43
2022-12-18T16:13:25.513Z,891.03
2022-12-18T16:16:36.925Z,897.53
2022-12-18T16:19:49.857Z,905.50
2022-12-18T16:23:02.720Z,909.67
2022-12-18T16:26:14.068Z,898.90
2022-12-18T16:29:28.467Z,909.17
2022-12-18T16:32:39.917Z,903.73
2022-12-18T16:35:55.200Z,922.77
2022-12-18T16:39:08.051Z,898.50
2022-12-18T16:42:21.706Z,888.33
2022-12-18T16:45:34.375Z,902.60
2022-12-18T16:48:45.919Z,892.40
2022-12-18T16:51:57.847Z,871.80
2022-12-18T16:55:13.631Z,861.87
2022-12-18T16:58:24.774Z,890.93
2022-12-18T17:01:36.020Z,896.20
2022-12-18T17:04:47.861Z,942.33
2022-12-18T17:07:59.045Z,908.47
2022-12-18T17:11:11.636Z,911.57
2022-12-18T17:14:24.623Z,899.70
2022-12-18T17:17:36.906Z,880.60
2022-12-18T17:20:48.705Z,943.67
2022-12-18T17:24:02.852Z,890.33
2022-12-18T17:27:16.190Z,916.90
2022-12-18T17:30:27.373Z,902.17
2022-12-18T17:33:38.143Z,854.40
2022-12-18T17:36:50.949Z,869.77
2022-12-18T17:40:00.713Z,879.07
2022-12-18T17:43:13.255Z,874.23
2022-12-18T17:46:24.396Z,877.90
2022-12-18T17:49:34.600Z,905.43
2022-12-18T17:52:44.872Z,886.93
2022-12-18T17:55:56.025Z,891.97
2022-12-18T17:59:07.122Z,886.73
2022-12-18T18:02:17.201Z,891.47
2022-12-18T18:05:27.714Z,842.70
2022-12-18T18:08:38.965Z,829.37
2022-12-18T18:12:00.791Z,825.07
2022-12-18T18:15:13.883Z,804.27
2022-12-18T18:18:25.338Z,797.60
2022-12-18T18:21:39.957Z,781.60
2022-12-18T18:24:51.449Z,802.53
2022-12-18T18:28:01.856Z,794.63
2022-12-18T18:31:16.700Z,833.37
2022-12-18T18:34:29.819Z,808.40
2022-12-18T18:37:40.739Z,817.53
2022-12-18T18:41:00.432Z,800.43
2022-12-18T18:44:12.277Z,779.97
2022-12-18T18:47:25.212Z,794.53
2022-12-18T18:50:35.413Z,817.00
2022-12-18T18:53:47.304Z,809.00
2022-12-18T18:57:19.938Z,822.03
2022-12-18T19:00:28.395Z,815.70
2022-12-18T19:03:41.471Z,808.33
2022-12-18T19:06:52.045Z,846.03
2022-12-18T19:10:04.482Z,772.00
2022-12-18T19:13:21.363Z,751.17
2022-12-18T19:16:31.571Z,732.60
2022-12-18T19:19:43.306Z,820.80
2022-12-18T19:22:55.475Z,826.63
2022-12-18T19:26:27.337Z,760.70
2022-12-18T19:29:37.651Z,699.80
2022-12-18T19:32:47.673Z,739.87
2022-12-18T19:35:58.634Z,751.40
2022-12-18T19:39:11.686Z,769.87
2022-12-18T19:42:28.194Z,825.77
2022-12-18T19:45:42.312Z,786.93
2022-12-18T19:48:53.657Z,821.90
2022-12-18T19:52:04.754Z,767.20
2022-12-18T19:55:15.705Z,766.70
2022-12-18T19:58:25.614Z,759.50
2022-12-18T20:01:36.784Z,785.90
2022-12-18T20:04:48.439Z,825.70
2022-12-18T20:07:59.915Z,797.63
2022-12-18T20:11:11.740Z,740.33
2022-12-18T20:14:23.551Z,755.00
2022-12-18T20:17:33.522Z,712.40
2022-12-18T20:20:43.647Z,782.60
2022-12-18T20:23:55.791Z,707.17
2022-12-18T20:27:09.774Z,731.97
2022-12-18T20:30:22.302Z,674.77
2022-12-18T20:33:32.383Z,821.80
